Time;durP1;ratioP1;P1;durP2;ratioP2;P2;SDS_P1;SDS_P2;PMS_P1;PMS_P2;Temp;Humidity;BMP_temperature;BMP_pressure;BME280_temperature;BME280_humidity;BME280_pressure;Samples;Min_cycle;Max_cycle;Signal;HPM_P1;HPM_P2
2021/05/28 00:01:53;;;;;;;5.40;1.50;;;;;;;16.19;43.41;98622.44;4973183;28;20027;-64
2021/05/28 00:04:18;;;;;;;5.10;1.80;;;;;;;15.99;44.91;98614.28;4966020;28;20085;-62
2021/05/28 00:06:44;;;;;;;4.82;1.52;;;;;;;15.97;43.97;98626.72;4960659;28;20125;-63
2021/05/28 00:09:09;;;;;;;3.45;1.23;;;;;;;16.12;40.80;98632.81;4971092;28;20042;-62
2021/05/28 00:11:35;;;;;;;4.57;1.70;;;;;;;16.02;42.21;98631.47;4961417;28;20018;-61
2021/05/28 00:14:00;;;;;;;4.88;1.77;;;;;;;16.00;42.74;98623.75;4982847;28;20737;-63
2021/05/28 00:16:26;;;;;;;6.20;1.73;;;;;;;15.91;44.08;98633.50;4976639;28;20076;-63
2021/05/28 00:18:52;;;;;;;4.85;1.80;;;;;;;15.79;43.51;98613.97;4981270;28;20038;-64
2021/05/28 00:21:18;;;;;;;4.18;1.60;;;;;;;15.93;43.09;98643.81;4983044;28;20039;-64
2021/05/28 00:23:43;;;;;;;4.13;1.38;;;;;;;16.05;42.14;98649.47;4978420;28;20034;-64
2021/05/28 00:26:10;;;;;;;5.45;1.73;;;;;;;15.96;42.23;98659.22;4977111;28;20063;-62
2021/05/28 00:28:35;;;;;;;4.90;1.60;;;;;;;15.79;43.91;98652.47;4985311;28;20034;-62
2021/05/28 00:31:01;;;;;;;5.03;1.77;;;;;;;15.75;45.32;98652.00;4979465;28;20037;-64
2021/05/28 00:33:26;;;;;;;5.53;1.83;;;;;;;15.66;45.40;98648.63;4985146;28;20446;-62
2021/05/28 00:35:52;;;;;;;5.78;1.60;;;;;;;15.71;45.39;98646.28;4967469;28;20033;-64
2021/05/28 00:38:17;;;;;;;5.78;2.03;;;;;;;15.73;45.18;98649.56;4977934;28;20046;-62
2021/05/28 00:40:42;;;;;;;8.38;2.33;;;;;;;15.22;45.42;98609.97;4985715;28;20027;-65
2021/05/28 00:43:08;;;;;;;6.55;2.17;;;;;;;15.43;45.68;98653.06;4982197;28;20084;-64
2021/05/28 00:45:33;;;;;;;6.55;1.92;;;;;;;15.45;45.30;98672.84;4986073;28;20022;-61
2021/05/28 00:47:59;;;;;;;4.80;1.60;;;;;;;15.50;43.95;98659.25;5007143;28;20030;-65
2021/05/28 00:50:29;;;;;;;4.63;1.90;;;;;;;15.45;43.76;98672.84;4983921;28;20799;-64
2021/05/28 00:52:56;;;;;;;4.50;1.70;;;;;;;15.46;42.27;98624.72;4984269;28;20069;-65
2021/05/28 00:55:22;;;;;;;5.75;1.80;;;;;;;15.71;42.25;98677.72;4979797;28;20516;-61
2021/05/28 00:57:48;;;;;;;5.53;1.40;;;;;;;15.56;40.87;98641.00;4982588;28;20026;-63
2021/05/28 01:00:14;;;;;;;6.80;1.50;;;;;;;15.70;40.83;98670.06;4966051;28;20069;-60
2021/05/28 01:02:39;;;;;;;7.25;1.58;;;;;;;15.82;40.96;98673.91;4979598;28;20041;-63
2021/05/28 01:05:05;;;;;;;4.68;1.50;;;;;;;15.86;41.19;98682.22;4972580;28;20037;-62
2021/05/28 01:07:31;;;;;;;5.00;1.80;;;;;;;15.66;42.89;98687.09;4979292;28;20125;-63
2021/05/28 01:09:56;;;;;;;6.05;1.67;;;;;;;15.58;42.80;98677.50;4980690;28;20030;-62
2021/05/28 01:12:21;;;;;;;5.32;1.58;;;;;;;15.22;42.44;98648.44;4979175;28;20501;-64
2021/05/28 01:14:50;;;;;;;4.70;1.48;;;;;;;15.46;42.11;98681.50;4978207;28;20505;-65
2021/05/28 01:17:16;;;;;;;8.02;2.00;;;;;;;15.48;42.95;98695.25;4977317;28;20185;-63
2021/05/28 01:19:42;;;;;;;7.45;2.20;;;;;;;15.32;43.12;98655.09;4993874;28;20096;-62
2021/05/28 01:22:08;;;;;;;6.60;2.30;;;;;;;15.61;43.61;98695.50;4982841;28;20030;-63
2021/05/28 01:24:34;;;;;;;5.47;1.92;;;;;;;15.54;44.67;98694.56;4980348;28;20857;-63
2021/05/28 01:27:00;;;;;;;4.40;1.65;;;;;;;15.26;44.78;98668.06;4975788;28;20077;-63
2021/05/28 01:29:26;;;;;;;5.28;2.30;;;;;;;15.58;44.94;98714.19;4979195;28;20034;-63
2021/05/28 01:31:52;;;;;;;4.90;1.80;;;;;;;15.61;45.11;98713.06;4979664;28;20507;-61
2021/05/28 01:34:18;;;;;;;6.47;2.03;;;;;;;15.46;44.88;98723.44;4983713;28;20038;-62
2021/05/28 01:36:43;;;;;;;4.25;1.83;;;;;;;15.01;45.92;98643.84;4959438;28;20026;-64
2021/05/28 01:39:09;;;;;;;5.47;1.90;;;;;;;15.53;45.68;98727.84;4978706;28;20034;-63
2021/05/28 01:41:34;;;;;;;6.22;1.92;;;;;;;15.45;45.94;98725.25;4979726;28;20125;-64
2021/05/28 01:44:00;;;;;;;5.07;1.70;;;;;;;15.43;45.82;98722.00;4978936;28;20049;-62
2021/05/28 01:46:25;;;;;;;5.10;2.10;;;;;;;15.31;46.79;98686.69;4963198;28;20034;-64
2021/05/28 01:48:51;;;;;;;4.90;1.60;;;;;;;15.55;47.50;98723.25;4981274;28;20026;-64
2021/05/28 01:51:16;;;;;;;5.18;2.00;;;;;;;15.27;47.40;98690.66;4962028;28;20058;-63
2021/05/28 01:53:42;;;;;;;4.13;1.98;;;;;;;15.52;48.14;98722.78;4963657;28;20041;-64
2021/05/28 01:56:08;;;;;;;6.07;1.98;;;;;;;15.39;48.03;98720.72;4996399;28;20064;-64
2021/05/28 01:58:33;;;;;;;5.43;2.08;;;;;;;15.41;47.84;98739.69;4980839;28;20038;-64
2021/05/28 02:00:59;;;;;;;6.03;2.25;;;;;;;15.24;48.55;98738.97;4962382;28;20109;-62
2021/05/28 02:03:25;;;;;;;5.20;2.20;;;;;;;15.24;48.70;98733.75;5008910;28;20034;-61
2021/05/28 02:05:51;;;;;;;6.15;2.40;;;;;;;15.29;48.76;98736.63;4978042;28;20109;-63
2021/05/28 02:08:17;;;;;;;6.13;2.00;;;;;;;15.38;49.37;98745.28;4971494;28;20038;-61
2021/05/28 02:10:43;;;;;;;5.72;2.40;;;;;;;14.98;49.88;98702.56;4979434;28;20033;-64
2021/05/28 02:13:09;;;;;;;4.97;2.08;;;;;;;15.22;49.62;98743.53;4973990;28;20061;-64
2021/05/28 02:15:34;;;;;;;6.35;2.20;;;;;;;14.95;50.23;98719.47;4976741;28;20046;-63
2021/05/28 02:17:59;;;;;;;4.95;2.10;;;;;;;15.11;50.84;98754.41;4971655;28;20037;-64
2021/05/28 02:20:25;;;;;;;4.88;1.88;;;;;;;15.05;50.64;98755.91;4980234;28;20030;-61
2021/05/28 02:22:51;;;;;;;4.65;2.10;;;;;;;15.02;51.66;98739.72;4978838;28;20034;-62
2021/05/28 02:25:16;;;;;;;4.90;2.00;;;;;;;14.89;50.73;98724.53;4963293;28;20638;-62
2021/05/28 02:27:43;;;;;;;4.72;1.90;;;;;;;14.99;50.78;98759.22;4982759;28;20080;-63
2021/05/28 02:30:09;;;;;;;6.82;2.10;;;;;;;14.60;52.27;98752.09;4982378;28;20030;-63
2021/05/28 02:32:35;;;;;;;10.30;2.22;;;;;;;14.70;52.40;98757.97;4976223;28;20035;-64
2021/05/28 02:35:01;;;;;;;7.25;2.13;;;;;;;14.74;52.92;98761.88;4976585;28;20030;-65
2021/05/28 02:37:26;;;;;;;6.00;2.35;;;;;;;14.74;53.91;98759.28;4974353;28;20065;-63
2021/05/28 02:39:52;;;;;;;6.30;2.35;;;;;;;14.58;54.09;98769.78;4976774;28;20031;-63
2021/05/28 02:42:17;;;;;;;7.47;2.42;;;;;;;14.25;54.46;98729.75;4970285;28;20082;-62
2021/05/28 02:44:43;;;;;;;7.85;2.47;;;;;;;14.55;55.03;98752.59;4980026;28;20121;-64
2021/05/28 02:47:08;;;;;;;5.43;2.25;;;;;;;14.53;53.16;98758.97;4981961;28;20193;-63
2021/05/28 02:49:35;;;;;;;6.55;2.20;;;;;;;14.29;52.98;98739.72;4975336;28;20033;-62
2021/05/28 02:52:01;;;;;;;5.80;2.15;;;;;;;14.45;53.11;98778.09;4975302;28;20037;-58
2021/05/28 02:54:27;;;;;;;5.13;2.00;;;;;;;14.41;55.09;98775.00;4978169;28;20034;-60
2021/05/28 02:56:53;;;;;;;5.88;2.40;;;;;;;14.48;54.86;98784.81;4982850;28;20030;-64
2021/05/28 02:59:18;;;;;;;6.13;2.03;;;;;;;14.43;55.35;98787.91;4979743;28;20092;-65
2021/05/28 03:01:43;;;;;;;5.95;2.40;;;;;;;14.45;55.63;98793.00;4979823;28;20022;-65
2021/05/28 03:04:09;;;;;;;5.82;2.30;;;;;;;14.49;56.28;98781.22;4981101;28;20031;-63
2021/05/28 03:06:34;;;;;;;5.10;2.33;;;;;;;14.55;55.95;98791.03;4976543;28;20163;-64
2021/05/28 03:09:00;;;;;;;5.07;2.33;;;;;;;14.50;55.95;98790.72;4983692;28;20026;-63
2021/05/28 03:11:25;;;;;;;7.50;2.30;;;;;;;14.42;56.69;98797.56;4979574;28;20034;-62
2021/05/28 03:13:51;;;;;;;5.68;2.28;;;;;;;14.17;56.30;98759.34;4980362;28;20096;-64
2021/05/28 03:16:16;;;;;;;5.63;1.90;;;;;;;14.42;56.90;98797.56;4978969;28;20656;-63
2021/05/28 03:18:56;;;;;;;9.52;2.42;;;;;;;14.13;56.20;98766.69;4980431;28;20125;-62
2021/05/28 03:23:59;;;;;;;6.20;2.40;;;;;;;13.97;58.17;98809.31;4981188;28;20060;-64
2021/05/28 03:26:26;;;;;;;7.57;2.47;;;;;;;13.73;58.76;98765.69;4979176;28;20026;-62
2021/05/28 03:28:52;;;;;;;6.70;2.05;;;;;;;13.82;58.85;98814.38;4981443;28;20109;-64
2021/05/28 03:31:18;;;;;;;6.25;1.92;;;;;;;13.98;59.24;98797.91;4979810;28;20120;-63
2021/05/28 03:33:44;;;;;;;6.40;1.92;;;;;;;13.75;59.17;98734.16;4974017;28;20771;-63
2021/05/28 03:36:10;;;;;;;6.97;2.40;;;;;;;14.29;59.05;98805.09;4979634;28;20032;-63
2021/05/28 03:38:35;;;;;;;7.15;2.55;;;;;;;14.30;59.82;98798.88;4962536;28;20037;-65
2021/05/28 03:41:01;;;;;;;5.55;2.28;;;;;;;13.79;59.99;98741.50;4978268;28;20030;-62
2021/05/28 03:43:27;;;;;;;6.90;2.10;;;;;;;14.13;59.64;98792.03;4978297;28;20229;-62
2021/05/28 03:45:52;;;;;;;6.07;2.08;;;;;;;14.18;59.99;98792.34;4990318;28;20030;-67
2021/05/28 03:48:18;;;;;;;4.93;1.90;;;;;;;14.05;58.25;98782.38;4973084;28;20642;-63
2021/05/28 03:50:44;;;;;;;4.30;1.60;;;;;;;14.15;55.49;98780.41;4978363;28;20436;-63
2021/05/28 03:53:09;;;;;;;5.68;1.83;;;;;;;14.31;56.98;98802.31;4980163;28;20416;-63
2021/05/28 03:55:35;;;;;;;4.80;1.50;;;;;;;14.30;56.76;98801.50;4976227;28;20031;-62
2021/05/28 03:58:00;;;;;;;5.10;1.80;;;;;;;14.12;55.82;98751.16;4960235;28;20031;-65
2021/05/28 04:00:26;;;;;;;4.90;1.55;;;;;;;14.40;51.52;98794.31;4959813;28;20042;-65
2021/05/28 04:02:52;;;;;;;4.88;1.50;;;;;;;14.23;52.41;98787.44;4978637;28;20065;-63
2021/05/28 04:05:17;;;;;;;5.65;1.55;;;;;;;14.09;52.95;98754.09;4979980;28;20084;-64
2021/05/28 04:07:43;;;;;;;3.97;1.40;;;;;;;14.39;54.42;98792.66;4979459;28;20489;-63
2021/05/28 04:10:09;;;;;;;4.28;1.50;;;;;;;14.18;53.21;98755.72;4996845;28;20034;-64
2021/05/28 04:12:35;;;;;;;4.55;1.42;;;;;;;14.43;54.15;98806.22;4982252;28;20025;-65
2021/05/28 04:15:02;;;;;;;5.00;1.67;;;;;;;14.32;54.75;98801.34;4980201;28;20054;-63
2021/05/28 04:17:27;;;;;;;5.85;1.70;;;;;;;14.45;54.36;98811.31;4964261;28;20100;-62
2021/05/28 04:19:53;;;;;;;4.55;1.63;;;;;;;14.41;54.55;98800.34;4984840;28;20161;-65
2021/05/28 04:22:18;;;;;;;4.80;1.50;;;;;;;14.58;54.52;98822.09;4982646;28;20022;-64
2021/05/28 04:24:44;;;;;;;4.68;1.52;;;;;;;14.58;54.86;98822.09;4985707;28;20057;-64
2021/05/28 04:27:09;;;;;;;4.38;1.67;;;;;;;14.59;54.47;98834.22;4983866;28;20022;-64
2021/05/28 04:29:34;;;;;;;5.78;1.60;;;;;;;14.41;54.97;98827.31;4981497;28;20568;-64
2021/05/28 04:32:00;;;;;;;5.07;1.70;;;;;;;14.51;55.50;98845.50;4986906;28;20393;-64
2021/05/28 04:34:25;;;;;;;6.47;1.70;;;;;;;14.59;55.52;98850.72;4979958;28;20036;-63
2021/05/28 04:36:51;;;;;;;4.80;1.52;;;;;;;14.63;56.48;98843.38;4966909;28;20023;-63
2021/05/28 04:39:17;;;;;;;4.15;1.60;;;;;;;14.58;56.34;98848.28;4981335;28;20733;-62
2021/05/28 04:41:42;;;;;;;4.75;1.90;;;;;;;14.56;56.90;98850.22;4979869;28;20436;-65
2021/05/28 04:44:08;;;;;;;7.15;2.40;;;;;;;14.59;55.78;98857.78;4984104;28;20142;-63
2021/05/28 04:46:33;;;;;;;6.97;2.00;;;;;;;14.15;56.60;98821.44;4963971;28;20041;-64
2021/05/28 04:48:59;;;;;;;6.72;2.22;;;;;;;14.28;56.77;98862.81;4968196;28;20187;-64
2021/05/28 04:51:24;;;;;;;6.97;2.00;;;;;;;14.21;56.94;98867.84;4991819;28;20501;-65
2021/05/28 04:53:50;;;;;;;6.13;2.13;;;;;;;14.27;56.96;98871.63;4980608;28;20030;-61
2021/05/28 04:56:16;;;;;;;6.70;2.50;;;;;;;13.90;58.44;98836.28;4984282;28;20057;-63
2021/05/28 04:58:41;;;;;;;6.97;2.67;;;;;;;14.22;57.76;98888.63;4978329;28;20663;-65
2021/05/28 05:01:07;;;;;;;6.97;2.70;;;;;;;14.36;57.74;98891.56;4981255;28;20030;-63
2021/05/28 05:03:32;;;;;;;7.72;2.80;;;;;;;14.28;57.80;98895.00;4979598;28;20027;-63
2021/05/28 05:05:57;;;;;;;7.20;2.92;;;;;;;14.35;57.62;98896.00;4980603;28;20038;-64
2021/05/28 05:08:23;;;;;;;7.68;3.03;;;;;;;14.11;58.82;98878.47;4962419;28;20585;-65
2021/05/28 05:10:48;;;;;;;8.80;3.00;;;;;;;14.26;58.34;98901.38;4983436;28;20031;-64
2021/05/28 05:13:15;;;;;;;9.13;2.92;;;;;;;14.39;58.35;98909.56;4983526;28;20044;-62
2021/05/28 05:15:40;;;;;;;8.95;3.30;;;;;;;14.29;59.11;98875.72;4982557;28;20604;-62
2021/05/28 05:18:06;;;;;;;7.78;2.92;;;;;;;14.45;58.16;98906.28;4975296;28;20061;-62
2021/05/28 05:20:33;;;;;;;7.07;2.70;;;;;;;14.22;57.70;98867.69;4977734;28;20033;-64
2021/05/28 05:22:58;;;;;;;7.68;3.05;;;;;;;14.51;57.88;98923.97;4979536;28;20128;-64
2021/05/28 05:25:24;;;;;;;8.82;3.10;;;;;;;14.45;57.83;98913.34;4979124;28;20070;-64
2021/05/28 05:27:49;;;;;;;8.48;3.28;;;;;;;14.52;57.65;98930.03;4982627;28;20161;-64
2021/05/28 05:30:16;;;;;;;11.82;3.33;;;;;;;14.57;58.16;98932.97;4963394;28;20120;-63
2021/05/28 05:32:41;;;;;;;9.48;3.25;;;;;;;14.63;57.61;98921.88;4979026;28;20038;-65
2021/05/28 05:35:07;;;;;;;11.70;3.08;;;;;;;14.64;57.69;98926.16;4979160;28;20034;-62
2021/05/28 05:37:33;;;;;;;7.53;3.33;;;;;;;14.63;58.27;98934.16;4982528;28;20560;-62
2021/05/28 05:39:58;;;;;;;12.38;2.90;;;;;;;14.64;58.28;98936.63;4984003;28;20114;-66
2021/05/28 05:42:24;;;;;;;6.30;2.90;;;;;;;14.58;58.48;98934.63;4976911;28;20089;-65
2021/05/28 05:44:49;;;;;;;8.93;3.17;;;;;;;14.46;58.39;98928.88;4960379;28;20598;-61
2021/05/28 05:47:15;;;;;;;7.35;2.80;;;;;;;14.38;57.88;98926.22;4970613;28;20054;-63
2021/05/28 05:49:40;;;;;;;8.85;3.08;;;;;;;14.44;58.22;98923.00;4982433;28;20072;-62
2021/05/28 05:52:05;;;;;;;6.25;2.72;;;;;;;14.51;58.71;98923.13;4982331;28;20034;-62
2021/05/28 05:54:32;;;;;;;19.35;13.65;;;;;;;14.56;58.64;98918.25;4973190;28;20712;-63
2021/05/28 05:56:57;;;;;;;12.75;7.38;;;;;;;14.65;57.89;98926.94;4962914;28;20037;-59
2021/05/28 05:59:24;;;;;;;10.45;6.45;;;;;;;14.67;59.46;98927.59;4982065;28;20031;-64
2021/05/28 06:01:50;;;;;;;9.00;3.47;;;;;;;14.60;57.39;98925.66;4982649;28;20093;-64
2021/05/28 06:04:15;;;;;;;11.38;5.55;;;;;;;14.38;58.68;98889.59;4980704;28;20623;-63
2021/05/28 06:06:41;;;;;;;7.65;3.90;;;;;;;14.34;57.93;98888.31;4983126;28;20026;-63
2021/05/28 06:09:07;;;;;;;6.07;2.15;;;;;;;14.41;57.33;98899.75;4983429;28;20034;-61
2021/05/28 06:11:32;;;;;;;6.70;2.47;;;;;;;14.72;58.14;98928.75;4975321;28;20938;-63
2021/05/28 06:13:58;;;;;;;8.95;2.50;;;;;;;14.70;58.48;98922.88;5015592;28;20850;-64
2021/05/28 06:16:23;;;;;;;5.22;1.90;;;;;;;14.52;55.98;98896.00;4958001;28;20042;-63
2021/05/28 06:18:48;;;;;;;5.93;1.70;;;;;;;14.65;56.01;98933.00;4984256;28;20030;-62
2021/05/28 06:21:14;;;;;;;6.95;1.90;;;;;;;14.66;56.01;98926.78;4976413;28;20038;-64
2021/05/28 06:23:39;;;;;;;4.95;1.70;;;;;;;14.31;55.79;98875.53;4983597;28;20030;-63
2021/05/28 06:26:05;;;;;;;6.75;2.00;;;;;;;14.51;55.83;98918.75;4982400;28;20036;-61
2021/05/28 06:28:30;;;;;;;4.60;1.95;;;;;;;14.36;56.16;98918.53;4979147;28;20029;-63
2021/05/28 06:30:56;;;;;;;4.63;1.95;;;;;;;14.23;56.31;98871.13;4978301;28;20031;-63
2021/05/28 06:33:22;;;;;;;4.20;1.42;;;;;;;14.47;55.41;98906.13;4977306;28;20122;-63
2021/05/28 06:35:48;;;;;;;5.80;1.75;;;;;;;14.20;55.77;98864.44;5007299;28;20026;-63
2021/05/28 06:38:13;;;;;;;4.10;1.70;;;;;;;14.39;56.59;98910.38;4981740;28;20100;-62
2021/05/28 06:40:39;;;;;;;4.20;1.58;;;;;;;14.35;57.06;98905.66;4984579;28;20026;-63
2021/05/28 06:43:05;;;;;;;4.95;1.73;;;;;;;14.21;57.32;98892.19;4964971;28;20028;-64
2021/05/28 06:45:31;;;;;;;7.03;1.75;;;;;;;14.18;57.30;98889.09;4980681;28;20065;-63
2021/05/28 06:47:56;;;;;;;4.25;1.48;;;;;;;14.22;56.34;98896.47;4981092;28;20149;-64
2021/05/28 06:50:22;;;;;;;4.60;2.03;;;;;;;14.34;57.04;98904.81;4983376;28;20118;-60
2021/05/28 06:52:47;;;;;;;5.32;1.90;;;;;;;14.20;56.96;98874.06;5010198;28;20514;-60
2021/05/28 06:55:13;;;;;;;4.35;1.80;;;;;;;14.21;57.33;98889.59;4976376;28;20140;-63
2021/05/28 06:57:39;;;;;;;5.53;1.80;;;;;;;14.09;57.21;98869.13;4981743;28;20552;-64
2021/05/28 07:00:07;;;;;;;4.97;1.70;;;;;;;14.17;56.93;98866.56;4964716;28;20041;-62
2021/05/28 07:02:32;;;;;;;5.00;2.00;;;;;;;14.41;57.03;98907.59;4979411;28;20053;-64
2021/05/28 07:04:58;;;;;;;5.40;1.60;;;;;;;14.51;55.69;98912.66;4978837;28;20042;-63
2021/05/28 07:07:23;;;;;;;6.70;1.60;;;;;;;14.56;56.51;98907.78;4976840;28;20034;-63
2021/05/28 07:09:48;;;;;;;4.72;1.67;;;;;;;14.67;56.43;98912.72;4984700;28;20030;-61
2021/05/28 07:12:14;;;;;;;6.63;2.00;;;;;;;14.46;57.19;98876.56;4976942;28;20061;-63
2021/05/28 07:14:40;;;;;;;6.57;1.85;;;;;;;14.31;55.38;98855.47;4978643;28;20559;-63
2021/05/28 07:17:05;;;;;;;5.70;1.90;;;;;;;14.52;54.12;98896.00;4980277;28;20027;-62
2021/05/28 07:19:31;;;;;;;6.95;1.90;;;;;;;14.43;55.65;98889.94;4991334;28;20053;-62
2021/05/28 07:21:57;;;;;;;5.57;1.60;;;;;;;14.47;55.81;98893.06;4978827;28;20128;-60
2021/05/28 07:24:22;;;;;;;6.45;1.90;;;;;;;14.51;56.11;98895.19;4980632;28;20103;-64
2021/05/28 07:26:48;;;;;;;3.88;1.40;;;;;;;14.63;55.28;98882.63;4982316;28;20041;-63
2021/05/28 07:29:13;;;;;;;5.97;1.70;;;;;;;14.72;53.52;98879.03;4976120;28;20073;-64
2021/05/28 07:31:39;;;;;;;5.03;1.60;;;;;;;14.75;53.58;98872.66;4980461;28;20173;-63
2021/05/28 07:34:04;;;;;;;5.32;1.63;;;;;;;14.80;54.15;98881.66;4980889;28;20034;-63
2021/05/28 07:36:30;;;;;;;4.32;1.50;;;;;;;14.75;53.70;98878.69;4981642;28;20034;-60
2021/05/28 07:38:55;;;;;;;4.35;1.60;;;;;;;14.97;54.79;98887.66;4980677;28;20437;-62
2021/05/28 07:41:21;;;;;;;5.82;1.85;;;;;;;15.75;51.59;98877.44;4979701;28;20030;-63
2021/05/28 07:43:46;;;;;;;6.47;2.03;;;;;;;16.18;50.68;98869.19;4978934;28;20036;-64
2021/05/28 07:46:11;;;;;;;6.80;2.42;;;;;;;16.56;50.12;98871.88;4981168;28;20162;-63
2021/05/28 07:48:37;;;;;;;8.88;3.22;;;;;;;16.92;49.46;98858.94;4982108;28;20039;-61
2021/05/28 07:51:03;;;;;;;7.75;2.13;;;;;;;17.38;49.57;98869.28;4977370;28;20395;-63
2021/05/28 07:53:29;;;;;;;4.85;1.98;;;;;;;17.41;47.87;98847.06;4981521;28;20072;-63
2021/05/28 07:55:58;;;;;;;6.60;2.65;;;;;;;17.75;47.58;98859.59;4977352;28;20037;-61
2021/05/28 07:58:25;;;;;;;6.47;2.00;;;;;;;18.29;47.01;98853.13;4962698;28;20030;-62
2021/05/28 08:00:50;;;;;;;5.50;1.90;;;;;;;18.50;46.08;98841.75;4983690;28;20015;-62
2021/05/28 08:03:15;;;;;;;5.15;1.55;;;;;;;18.95;45.31;98847.56;4981823;28;20034;-62
2021/05/28 08:05:42;;;;;;;4.82;1.58;;;;;;;19.27;44.05;98842.69;4981969;28;20089;-63
2021/05/28 08:08:10;;;;;;;4.78;1.58;;;;;;;19.26;44.12;98841.06;4982429;28;20045;-61
2021/05/28 08:10:36;;;;;;;5.25;1.60;;;;;;;19.53;43.32;98842.00;4983041;28;20050;-64
2021/05/28 08:13:01;;;;;;;5.75;1.70;;;;;;;19.79;43.39;98840.50;4978417;28;20030;-64
2021/05/28 08:15:27;;;;;;;7.18;1.70;;;;;;;19.74;42.63;98837.63;4982643;28;20042;-63
2021/05/28 08:17:52;;;;;;;4.75;1.70;;;;;;;19.75;43.10;98797.03;4980916;28;20467;-64
2021/05/28 08:20:18;;;;;;;4.75;1.70;;;;;;;20.32;41.94;98826.59;4978055;28;20030;-59
2021/05/28 08:22:44;;;;;;;6.03;1.60;;;;;;;20.30;40.72;98791.66;4979393;28;20053;-63
2021/05/28 08:25:11;;;;;;;8.60;2.20;;;;;;;20.64;41.09;98795.91;4979450;28;20348;-61
2021/05/28 08:27:36;;;;;;;5.95;2.00;;;;;;;20.95;39.96;98822.69;4981522;28;20504;-62
2021/05/28 08:30:04;;;;;;;5.15;1.73;;;;;;;20.60;39.61;98797.31;4975180;28;20061;-62
2021/05/28 08:32:29;;;;;;;6.32;1.77;;;;;;;20.69;40.61;98824.34;4980261;28;20109;-63
2021/05/28 08:34:54;;;;;;;6.75;1.90;;;;;;;20.70;40.02;98800.38;4976562;28;20180;-62
2021/05/28 08:37:20;;;;;;;8.48;1.83;;;;;;;20.75;40.07;98815.59;4964841;28;20038;-60
2021/05/28 08:39:45;;;;;;;7.45;1.80;;;;;;;21.09;40.19;98808.44;4983092;28;20023;-62
2021/05/28 08:42:11;;;;;;;6.72;1.80;;;;;;;21.61;39.54;98816.38;4973770;28;20559;-63
2021/05/28 08:44:37;;;;;;;8.00;1.92;;;;;;;21.43;38.34;98787.94;4980983;28;20110;-61
2021/05/28 08:47:03;;;;;;;6.80;1.98;;;;;;;22.06;37.44;98817.13;4960567;28;20038;-61
2021/05/28 08:49:30;;;;;;;5.22;1.70;;;;;;;22.29;36.53;98797.25;4978566;28;20092;-62
2021/05/28 08:51:57;;;;;;;6.22;1.90;;;;;;;22.69;35.68;98804.03;4983376;28;20038;-62
2021/05/28 08:54:23;;;;;;;7.07;2.05;;;;;;;23.13;36.15;98805.66;4980520;28;20026;-62
2021/05/28 08:56:50;;;;;;;7.38;1.95;;;;;;;22.85;35.60;98798.16;4977591;28;20621;-61
2021/05/28 08:59:16;;;;;;;5.82;1.90;;;;;;;23.11;35.43;98799.75;4982308;28;20023;-62
2021/05/28 09:01:42;;;;;;;6.40;1.80;;;;;;;23.45;36.17;98797.50;4981707;28;20457;-63
2021/05/28 09:04:07;;;;;;;5.07;1.95;;;;;;;23.53;35.98;98804.31;4984215;28;20030;-60
2021/05/28 09:06:38;;;;;;;6.25;1.85;;;;;;;23.33;35.24;98797.44;4973173;28;20022;-60
2021/05/28 09:09:23;;;;;;;5.03;1.80;;;;;;;22.78;36.84;98792.94;4985427;28;20023;-62
2021/05/28 09:11:56;;;;;;;6.47;2.17;;;;;;;22.30;37.28;98788.25;4982483;28;20026;-61
2021/05/28 09:14:37;;;;;;;5.70;1.70;;;;;;;23.01;36.98;98791.47;4976014;28;20030;-61
2021/05/28 09:17:04;;;;;;;7.15;1.85;;;;;;;22.93;37.15;98792.56;4984539;28;20038;-61
2021/05/28 09:19:29;;;;;;;7.15;1.90;;;;;;;23.26;36.20;98748.19;4978217;28;20065;-61
2021/05/28 09:22:01;;;;;;;4.55;1.55;;;;;;;24.10;35.57;98786.19;4967661;28;20504;-60
2021/05/28 09:24:45;;;;;;;4.97;1.80;;;;;;;23.06;36.16;98772.28;4982447;28;20042;-62
2021/05/28 09:27:22;;;;;;;6.68;2.00;;;;;;;23.34;36.61;98782.34;4978322;28;20057;-65
2021/05/28 09:30:01;;;;;;;4.90;1.83;;;;;;;22.51;36.79;98746.53;4982471;28;20035;-62
2021/05/28 09:32:26;;;;;;;9.73;6.82;;;;;;;22.67;37.10;98776.94;4981475;28;20065;-63
2021/05/28 09:34:52;;;;;;;6.82;2.53;;;;;;;22.99;36.01;98765.16;4979317;28;20027;-64
2021/05/28 09:37:17;;;;;;;5.80;2.00;;;;;;;23.40;35.45;98763.69;4979821;28;20039;-63
2021/05/28 09:39:43;;;;;;;5.53;1.92;;;;;;;23.58;34.92;98767.31;4961853;28;20516;-65
2021/05/28 09:42:08;;;;;;;5.95;2.58;;;;;;;23.63;34.17;98766.66;4972876;28;20084;-65
2021/05/28 09:44:33;;;;;;;6.15;2.20;;;;;;;23.44;34.51;98711.00;4976593;28;20035;-64
2021/05/28 09:47:19;;;;;;;7.97;2.88;;;;;;;23.10;34.23;98765.50;4978550;28;20480;-63
2021/05/28 09:49:44;;;;;;;7.15;2.83;;;;;;;22.96;35.45;98765.63;4983689;28;20030;-63
2021/05/28 09:52:16;;;;;;;5.82;2.70;;;;;;;23.01;36.95;98760.44;4983281;28;20034;-59
2021/05/28 09:54:57;;;;;;;5.88;2.40;;;;;;;23.05;36.38;98768.00;4975634;28;20029;-58
2021/05/28 09:57:30;;;;;;;7.72;2.53;;;;;;;22.86;36.50;98764.53;4977953;28;20066;-58
2021/05/28 09:59:55;;;;;;;7.40;2.80;;;;;;;22.49;35.74;98736.16;4976636;28;20117;-59
2021/05/28 10:02:31;;;;;;;6.20;2.83;;;;;;;22.55;37.87;98760.97;4975277;28;20099;-59
2021/05/28 10:04:57;;;;;;;5.85;2.50;;;;;;;21.95;38.29;98734.97;4991750;28;20405;-59
2021/05/28 10:07:25;;;;;;;5.53;2.65;;;;;;;21.85;38.24;98746.03;4980051;28;20121;-59
2021/05/28 10:09:52;;;;;;;8.13;2.55;;;;;;;21.67;39.42;98720.28;4974471;28;20102;-59
2021/05/28 10:12:17;;;;;;;6.10;2.75;;;;;;;22.06;39.30;98760.72;4976575;28;20649;-59
2021/05/28 10:14:43;;;;;;;5.95;2.50;;;;;;;21.91;39.70;98741.72;4975899;28;20049;-59
2021/05/28 10:17:09;;;;;;;7.57;2.85;;;;;;;21.65;39.73;98714.41;4971724;28;20034;-59
2021/05/28 10:19:34;;;;;;;6.72;2.97;;;;;;;21.97;37.81;98741.66;4979500;28;20027;-59
2021/05/28 10:22:01;;;;;;;8.40;2.95;;;;;;;22.03;38.36;98739.97;4980313;28;20118;-59
2021/05/28 10:24:27;;;;;;;6.47;3.30;;;;;;;22.03;37.52;98748.75;4964156;28;20349;-58
2021/05/28 10:26:52;;;;;;;7.82;3.03;;;;;;;21.74;39.15;98707.84;4961674;28;20492;-58
2021/05/28 10:29:28;;;;;;;7.82;3.25;;;;;;;21.92;37.96;98738.81;4980010;28;20042;-59
2021/05/28 10:31:55;;;;;;;9.50;2.72;;;;;;;21.84;39.06;98736.47;4981333;28;20036;-57
2021/05/28 10:34:22;;;;;;;6.35;2.78;;;;;;;21.71;40.98;98729.44;4974639;28;20027;-58
2021/05/28 10:36:48;;;;;;;6.55;2.58;;;;;;;21.85;38.30;98728.31;4981730;28;20058;-59
2021/05/28 10:39:15;;;;;;;8.02;2.65;;;;;;;21.83;38.39;98717.13;4981842;28;20068;-59
2021/05/28 10:41:48;;;;;;;8.30;3.35;;;;;;;21.93;37.09;98732.53;4979401;28;20125;-59
2021/05/28 10:44:16;;;;;;;7.18;3.05;;;;;;;21.75;37.48;98698.84;4978908;28;20129;-59
2021/05/28 10:46:54;;;;;;;9.50;3.10;;;;;;;21.93;39.09;98718.47;4970012;28;20034;-58
2021/05/28 10:49:35;;;;;;;7.07;2.38;;;;;;;21.84;38.23;98723.22;4963160;28;20446;-59
2021/05/28 10:52:02;;;;;;;6.60;2.70;;;;;;;21.69;39.33;98699.72;4972683;28;20104;-59
2021/05/28 10:54:31;;;;;;;6.00;2.50;;;;;;;21.75;38.99;98722.66;4973640;28;20034;-58
2021/05/28 10:56:56;;;;;;;7.03;2.58;;;;;;;21.78;37.91;98716.16;4970886;28;20034;-58
2021/05/28 10:59:23;;;;;;;6.13;2.60;;;;;;;21.76;36.47;98712.88;4994210;28;20030;-58
2021/05/28 11:02:00;;;;;;;7.53;2.78;;;;;;;21.72;37.87;98696.63;4992090;28;20034;-59
2021/05/28 11:04:31;;;;;;;5.55;2.47;;;;;;;21.69;37.81;98666.13;4974212;28;20027;-59
2021/05/28 11:07:00;;;;;;;6.38;2.60;;;;;;;21.73;36.84;98665.72;4979614;28;20485;-59
2021/05/28 11:09:49;;;;;;;6.53;2.45;;;;;;;22.07;37.21;98691.69;4974661;28;20506;-59
2021/05/28 11:12:16;;;;;;;6.75;2.00;;;;;;;21.98;35.90;98682.41;4972835;28;20066;-58
2021/05/28 11:15:04;;;;;;;7.68;2.40;;;;;;;22.09;35.89;98680.88;4978747;28;20033;-58
2021/05/28 11:17:29;;;;;;;5.30;2.58;;;;;;;22.01;35.93;98675.84;4971029;28;20788;-59
2021/05/28 11:19:57;;;;;;;6.05;2.22;;;;;;;21.95;36.76;98663.50;4975296;28;20037;-58
2021/05/28 11:22:35;;;;;;;7.80;2.70;;;;;;;22.19;36.66;98662.63;4970360;28;20470;-59
2021/05/28 11:25:18;;;;;;;6.00;2.60;;;;;;;22.25;36.01;98656.47;4977002;28;20027;-59
2021/05/28 11:27:54;;;;;;;7.05;2.33;;;;;;;22.46;36.41;98651.81;4968484;28;20039;-58
2021/05/28 11:30:22;;;;;;;6.63;2.65;;;;;;;22.43;37.19;98663.66;4953535;28;20646;-59
2021/05/28 11:32:48;;;;;;;5.93;2.60;;;;;;;22.24;37.36;98654.84;4969896;28;20030;-58
2021/05/28 11:35:18;;;;;;;5.93;2.33;;;;;;;22.28;37.67;98652.59;4968751;28;20126;-58